createdAt,value
2022-11-20T00:00:58.319Z,98894.31
2022-11-20T00:02:00.685Z,98884.63
2022-11-20T00:03:02.916Z,98880.13
2022-11-20T00:04:05.157Z,98881.94
2022-11-20T00:05:08.008Z,98885.03
2022-11-20T00:06:13.012Z,98883.88
2022-11-20T00:07:15.327Z,98882.97
2022-11-20T00:08:17.556Z,98876.94
2022-11-20T00:09:20.248Z,98875.47
2022-11-20T00:10:22.777Z,98874.38
2022-11-20T00:11:26.706Z,98877.25
2022-11-20T00:12:28.897Z,98882.09
2022-11-20T00:13:31.168Z,98883.13
2022-11-20T00:14:33.403Z,98877.91
2022-11-20T00:15:35.583Z,98885.06
2022-11-20T00:16:37.815Z,98879.25
2022-11-20T00:17:40.025Z,98874.63
2022-11-20T00:18:43.225Z,98878.84
2022-11-20T00:19:45.470Z,98884.41
2022-11-20T00:20:47.743Z,98881.09
2022-11-20T00:21:52.400Z,98880.09
2022-11-20T00:22:54.687Z,98876.38
2022-11-20T00:23:58.332Z,98884.28
2022-11-20T00:25:00.569Z,98884.38
2022-11-20T00:26:14.858Z,98882.00
2022-11-20T00:27:17.244Z,98882.34
2022-11-20T00:28:19.496Z,98883.19
2022-11-20T00:29:22.031Z,98886.38
2022-11-20T00:30:24.300Z,98879.28
2022-11-20T00:31:27.324Z,98884.44
2022-11-20T00:32:30.410Z,98878.28
2022-11-20T00:33:32.643Z,98877.63
2022-11-20T00:34:34.818Z,98882.25
2022-11-20T00:35:37.048Z,98881.09
2022-11-20T00:36:39.255Z,98884.63
2022-11-20T00:37:41.573Z,98877.56
2022-11-20T00:38:44.461Z,98890.31
2022-11-20T00:39:46.684Z,98882.94
2022-11-20T00:40:55.970Z,98882.09
2022-11-20T00:41:58.161Z,98886.25
2022-11-20T00:43:00.534Z,98880.84
2022-11-20T00:44:02.768Z,98889.84
2022-11-20T00:45:05.457Z,98883.50
2022-11-20T00:46:14.061Z,98879.78
2022-11-20T00:47:16.346Z,98887.63
2022-11-20T00:48:18.561Z,98887.25
2022-11-20T00:49:21.159Z,98887.03
2022-11-20T00:50:23.613Z,98885.34
2022-11-20T00:51:27.668Z,98883.81
2022-11-20T00:52:30.286Z,98897.91
2022-11-20T00:53:32.807Z,98885.69
2022-11-20T00:54:35.023Z,98891.81
2022-11-20T00:55:37.233Z,98900.16
2022-11-20T00:56:39.459Z,98897.94
2022-11-20T00:57:41.665Z,98900.97
2022-11-20T00:58:46.737Z,98898.81
2022-11-20T00:59:48.910Z,98894.22
2022-11-20T01:00:51.245Z,98901.69
2022-11-20T01:01:53.642Z,98888.66
2022-11-20T01:02:57.226Z,98896.63
2022-11-20T01:04:00.954Z,98895.06
2022-11-20T01:05:03.302Z,98897.44
2022-11-20T01:06:27.422Z,98900.63
2022-11-20T01:07:29.715Z,98895.41
2022-11-20T01:08:36.068Z,98890.72
2022-11-20T01:09:38.537Z,98888.59
2022-11-20T01:10:40.760Z,98885.34
2022-11-20T01:11:44.804Z,98887.81
2022-11-20T01:13:06.975Z,98893.09
2022-11-20T01:14:13.275Z,98883.03
2022-11-20T01:15:15.703Z,98889.50
2022-11-20T01:16:27.201Z,98889.38
2022-11-20T01:17:29.421Z,98890.28
2022-11-20T01:18:31.775Z,98880.03
2022-11-20T01:19:33.990Z,98884.78
2022-11-20T01:20:36.931Z,98884.69
2022-11-20T01:21:41.836Z,98882.44
2022-11-20T01:22:44.000Z,98887.38
2022-11-20T01:23:46.959Z,98883.81
2022-11-20T01:24:49.176Z,98883.81
2022-11-20T01:25:51.410Z,98882.03
2022-11-20T01:26:53.689Z,98890.31
2022-11-20T01:27:55.962Z,98888.19
2022-11-20T01:28:58.959Z,98895.97
2022-11-20T01:30:01.585Z,98883.19
2022-11-20T01:31:16.190Z,98889.03
2022-11-20T01:32:18.648Z,98891.81
2022-11-20T01:33:20.956Z,98888.13
2022-11-20T01:34:23.565Z,98889.72
2022-11-20T01:35:25.901Z,98879.34
2022-11-20T01:36:30.617Z,98890.88
2022-11-20T01:37:32.801Z,98881.50
2022-11-20T01:38:35.138Z,98881.66
2022-11-20T01:39:37.338Z,98882.84
2022-11-20T01:40:39.576Z,98875.84
2022-11-20T01:42:05.698Z,98887.69
2022-11-20T01:43:21.410Z,98883.63
2022-11-20T01:44:59.751Z,98886.31
2022-11-20T01:46:04.979Z,98886.38
2022-11-20T01:47:10.401Z,98880.28
2022-11-20T01:48:12.900Z,98886.59
2022-11-20T01:49:24.457Z,98884.81
2022-11-20T01:50:29.982Z,98883.25
2022-11-20T01:51:44.947Z,98877.59
2022-11-20T01:52:54.016Z,98881.09
2022-11-20T01:54:00.107Z,98885.50
2022-11-20T01:55:10.381Z,98884.34
2022-11-20T01:56:14.876Z,98873.66
2022-11-20T01:57:19.421Z,98881.38
2022-11-20T01:58:28.210Z,98885.66
2022-11-20T01:59:30.839Z,98876.44
2022-11-20T02:01:40.102Z,98877.13
2022-11-20T02:02:49.111Z,98870.28
2022-11-20T02:03:51.788Z,98868.25
2022-11-20T02:04:59.634Z,98877.63
2022-11-20T02:06:04.656Z,98872.16
2022-11-20T02:07:07.088Z,98860.56
2022-11-20T02:08:09.545Z,98865.59
2022-11-20T02:09:12.617Z,98871.53
2022-11-20T02:10:15.600Z,98868.75
2022-11-20T02:11:17.825Z,98870.22
2022-11-20T02:12:38.847Z,98867.78
2022-11-20T02:13:44.720Z,98865.63
2022-11-20T02:14:46.906Z,98872.97
2022-11-20T02:15:50.090Z,98867.75
2022-11-20T02:16:52.829Z,98871.84
2022-11-20T02:17:55.221Z,98867.41
2022-11-20T02:18:59.662Z,98865.44
2022-11-20T02:20:02.194Z,98876.84
2022-11-20T02:21:14.719Z,98871.44
2022-11-20T02:22:29.581Z,98858.44
2022-11-20T02:23:41.360Z,98864.66
2022-11-20T02:24:46.158Z,98867.19
2022-11-20T02:25:48.802Z,98863.31
2022-11-20T02:27:04.350Z,98862.22
2022-11-20T02:28:07.084Z,98867.31
2022-11-20T02:29:09.475Z,98865.94
2022-11-20T02:30:12.552Z,98863.59
2022-11-20T02:31:14.812Z,98864.84
2022-11-20T02:32:37.299Z,98855.97
2022-11-20T02:33:39.500Z,98863.31
2022-11-20T02:34:41.806Z,98858.66
2022-11-20T02:35:46.877Z,98851.91
2022-11-20T02:36:50.737Z,98861.72
2022-11-20T02:37:55.915Z,98860.66
2022-11-20T02:38:58.112Z,98860.75
2022-11-20T02:40:00.467Z,98854.44
2022-11-20T02:41:02.734Z,98856.78
2022-11-20T02:42:05.015Z,98865.38
2022-11-20T02:43:07.680Z,98856.81
2022-11-20T02:50:17.270Z,98852.91
2022-11-20T02:51:19.496Z,98852.47
2022-11-20T02:52:21.737Z,98851.78
2022-11-20T02:53:23.901Z,98844.06
2022-11-20T02:54:26.589Z,98838.00
2022-11-20T02:55:28.805Z,98838.16
2022-11-20T02:56:31.763Z,98851.84
2022-11-20T02:57:34.159Z,98842.84
2022-11-20T02:58:36.426Z,98845.69
2022-11-20T02:59:38.607Z,98844.00
2022-11-20T03:00:40.757Z,98845.19
2022-11-20T03:01:43.138Z,98842.69
2022-11-20T03:02:45.581Z,98847.22
2022-11-20T03:03:49.513Z,98846.00
2022-11-20T03:04:51.665Z,98851.94
2022-11-20T03:05:54.005Z,98856.44
2022-11-20T03:06:56.213Z,98856.50
2022-11-20T03:07:58.403Z,98846.44
2022-11-20T03:09:00.818Z,98849.03
2022-11-20T03:10:03.640Z,98841.94
2022-11-20T03:11:07.923Z,98845.56
2022-11-20T03:12:10.170Z,98848.25
2022-11-20T03:13:12.372Z,98833.50
2022-11-20T03:14:15.223Z,98837.41
2022-11-20T03:15:17.463Z,98833.56
2022-11-20T03:16:22.192Z,98829.66
2022-11-20T03:17:24.557Z,98836.22
2022-11-20T03:18:29.909Z,98835.53
2022-11-20T03:19:32.141Z,98843.81
2022-11-20T03:20:34.947Z,98839.38
2022-11-20T03:21:37.075Z,98843.13
2022-11-20T03:22:39.574Z,98834.75
2022-11-20T03:23:42.136Z,98838.16
2022-11-20T03:24:44.598Z,98835.88
2022-11-20T03:25:46.865Z,98835.59
2022-11-20T03:26:49.186Z,98832.13
2022-11-20T03:27:51.413Z,98841.09
2022-11-20T03:28:59.153Z,98832.47
2022-11-20T03:30:01.713Z,98840.16
2022-11-20T03:31:09.184Z,98838.22
2022-11-20T03:32:11.549Z,98833.03
2022-11-20T03:33:13.766Z,98824.28
2022-11-20T03:34:15.970Z,98831.00
2022-11-20T03:35:18.603Z,98828.28
2022-11-20T03:36:22.780Z,98835.16
2022-11-20T03:37:25.217Z,98834.00
2022-11-20T03:38:31.301Z,98827.03
2022-11-20T03:39:33.428Z,98834.06
2022-11-20T03:40:36.611Z,98836.47
2022-11-20T03:41:41.416Z,98837.63
2022-11-20T03:42:46.746Z,98832.88
2022-11-20T03:43:53.983Z,98835.28
2022-11-20T03:44:56.275Z,98839.28
2022-11-20T03:45:59.114Z,98833.94
2022-11-20T03:47:01.349Z,98833.19
2022-11-20T03:48:03.651Z,98831.41
2022-11-20T03:49:06.081Z,98832.38
2022-11-20T03:50:09.516Z,98833.66
2022-11-20T03:51:23.573Z,98837.03
2022-11-20T03:52:25.736Z,98832.19
2022-11-20T03:53:27.947Z,98829.56
2022-11-20T03:54:30.130Z,98829.50
2022-11-20T03:55:32.394Z,98832.06
2022-11-20T03:56:37.491Z,98831.69
2022-11-20T03:57:39.657Z,98825.72
2022-11-20T03:58:42.180Z,98823.97
2022-11-20T03:59:44.334Z,98825.06
2022-11-20T04:00:46.562Z,98825.16
2022-11-20T04:01:49.683Z,98835.19
2022-11-20T04:02:52.129Z,98821.91
2022-11-20T04:03:55.933Z,98833.81
2022-11-20T04:04:58.112Z,98826.03
2022-11-20T04:06:08.253Z,98830.09
2022-11-20T04:07:11.116Z,98831.56
2022-11-20T04:08:13.452Z,98832.59
2022-11-20T04:09:16.700Z,98828.34
2022-11-20T04:10:19.044Z,98829.41
2022-11-20T04:11:26.377Z,98837.75
2022-11-20T04:12:28.577Z,98841.94
2022-11-20T04:13:30.777Z,98834.50
2022-11-20T04:14:33.061Z,98826.03
2022-11-20T04:15:38.388Z,98827.19
2022-11-20T04:16:40.841Z,98821.72
2022-11-20T04:17:43.131Z,98828.94
2022-11-20T04:18:45.452Z,98827.97
2022-11-20T04:19:47.917Z,98813.47
2022-11-20T04:20:50.163Z,98827.38
2022-11-20T04:21:52.374Z,98819.59
2022-11-20T04:22:55.622Z,98824.25
2022-11-20T04:23:58.895Z,98818.84
2022-11-20T04:25:01.090Z,98812.22
2022-11-20T04:26:09.360Z,98821.31
2022-11-20T04:27:11.684Z,98812.28
2022-11-20T04:28:13.820Z,98822.53
2022-11-20T04:29:16.111Z,98823.97
2022-11-20T04:30:18.354Z,98820.84
2022-11-20T04:31:23.370Z,98813.34
2022-11-20T04:32:25.757Z,98825.50
2022-11-20T04:33:28.985Z,98821.97
2022-11-20T04:34:35.026Z,98824.41
2022-11-20T04:35:38.352Z,98830.59
2022-11-20T04:36:40.613Z,98828.06
2022-11-20T04:37:42.879Z,98827.38
2022-11-20T04:38:45.547Z,98827.72
2022-11-20T04:39:47.784Z,98815.69
2022-11-20T04:40:49.966Z,98818.75
2022-11-20T04:42:14.719Z,98826.78
2022-11-20T04:43:16.898Z,98816.00
2022-11-20T04:44:19.313Z,98808.75
2022-11-20T04:45:23.585Z,98802.75
2022-11-20T04:46:27.528Z,98815.72
2022-11-20T04:47:29.683Z,98815.53
2022-11-20T04:48:31.914Z,98807.69
2022-11-20T04:49:34.792Z,98810.34
2022-11-20T04:50:41.128Z,98807.41
2022-11-20T04:51:43.365Z,98803.28
2022-11-20T04:52:45.557Z,98802.78
2022-11-20T04:53:49.220Z,98800.28
2022-11-20T04:54:53.767Z,98808.41
2022-11-20T04:56:01.351Z,98805.50
2022-11-20T04:57:03.678Z,98804.31
2022-11-20T04:58:06.379Z,98811.66
2022-11-20T04:59:08.597Z,98810.69
2022-11-20T05:00:11.504Z,98811.59
2022-11-20T05:01:16.471Z,98816.81
2022-11-20T05:02:18.927Z,98812.38
2022-11-20T05:03:21.279Z,98814.97
2022-11-20T05:04:23.866Z,98816.41
2022-11-20T05:05:26.543Z,98813.00
2022-11-20T05:06:28.698Z,98815.78
2022-11-20T05:07:30.874Z,98808.25
2022-11-20T05:08:34.393Z,98813.22
2022-11-20T05:09:36.690Z,98811.69
2022-11-20T05:10:38.895Z,98803.97
2022-11-20T05:11:41.052Z,98813.13
2022-11-20T05:12:43.385Z,98810.41
2022-11-20T05:13:45.798Z,98813.13
2022-11-20T05:14:48.212Z,98810.47
2022-11-20T05:15:50.510Z,98808.53
2022-11-20T05:16:52.764Z,98800.00
2022-11-20T05:17:55.017Z,98801.66
2022-11-20T05:18:57.986Z,98799.44
2022-11-20T05:20:00.401Z,98807.34
2022-11-20T05:21:03.297Z,98803.41
2022-11-20T05:22:06.308Z,98814.63
2022-11-20T05:23:08.561Z,98808.06
2022-11-20T05:24:10.888Z,98815.94
2022-11-20T05:25:13.158Z,98814.31
2022-11-20T05:26:22.312Z,98814.88
2022-11-20T05:27:24.590Z,98800.84
2022-11-20T05:28:28.613Z,98810.00
2022-11-20T05:29:30.836Z,98803.81
2022-11-20T05:30:33.064Z,98813.97
2022-11-20T05:31:35.265Z,98809.56
2022-11-20T05:32:37.504Z,98814.41
2022-11-20T05:33:44.117Z,98813.19
2022-11-20T05:34:46.366Z,98811.81
2022-11-20T05:35:49.456Z,98818.34
2022-11-20T05:36:51.704Z,98810.72
2022-11-20T05:37:53.869Z,98798.59
2022-11-20T05:39:01.198Z,98810.13
2022-11-20T05:40:05.106Z,98819.53
2022-11-20T05:41:15.655Z,98803.03
2022-11-20T05:42:32.757Z,98803.75
2022-11-20T05:43:39.559Z,98818.63
2022-11-20T05:44:41.725Z,98809.38
2022-11-20T05:45:43.933Z,98806.69
2022-11-20T05:46:46.205Z,98803.19
2022-11-20T05:47:48.474Z,98812.00
2022-11-20T05:48:50.778Z,98802.94
2022-11-20T05:49:53.178Z,98805.81
2022-11-20T05:50:55.635Z,98810.00
2022-11-20T05:51:57.903Z,98802.94
2022-11-20T05:53:00.823Z,98804.22
2022-11-20T05:54:03.068Z,98794.13
2022-11-20T05:55:05.955Z,98801.31
2022-11-20T05:56:12.151Z,98810.16
2022-11-20T05:57:14.403Z,98799.56
2022-11-20T05:58:16.984Z,98806.38
2022-11-20T05:59:19.651Z,98809.81
2022-11-20T06:00:22.295Z,98799.81
2022-11-20T06:01:26.522Z,98801.19
2022-11-20T06:02:28.840Z,98802.88
2022-11-20T06:03:31.167Z,98808.91
2022-11-20T06:04:33.509Z,98803.25
2022-11-20T06:05:35.707Z,98806.06
2022-11-20T06:06:37.859Z,98801.41
2022-11-20T06:07:40.130Z,98814.97
2022-11-20T06:08:42.677Z,98810.25
2022-11-20T06:09:44.916Z,98805.81
2022-11-20T06:10:47.139Z,98802.78
2022-11-20T06:11:49.371Z,98808.31
2022-11-20T06:12:51.669Z,98798.81
2022-11-20T06:13:54.129Z,98809.66
2022-11-20T06:14:56.386Z,98803.19
2022-11-20T06:15:58.786Z,98805.47
2022-11-20T06:17:01.092Z,98804.63
2022-11-20T06:18:03.566Z,98807.75
2022-11-20T06:19:05.811Z,98805.13
2022-11-20T06:20:08.572Z,98812.03
2022-11-20T06:21:19.821Z,98799.25
2022-11-20T06:22:22.721Z,98800.28
2022-11-20T06:23:25.053Z,98798.28
2022-11-20T06:24:27.482Z,98800.16
2022-11-20T06:25:29.663Z,98802.75
2022-11-20T06:26:31.936Z,98798.59
2022-11-20T06:27:34.172Z,98799.69
2022-11-20T06:28:36.439Z,98800.63
2022-11-20T06:29:38.701Z,98807.03
2022-11-20T06:30:46.929Z,98800.78
2022-11-20T06:31:49.062Z,98802.84
2022-11-20T06:32:51.296Z,98810.91
2022-11-20T06:33:54.025Z,98809.09
2022-11-20T06:34:56.381Z,98798.41
2022-11-20T06:36:02.625Z,98807.94
2022-11-20T06:37:07.953Z,98803.91
2022-11-20T06:38:10.168Z,98801.13
2022-11-20T06:39:12.342Z,98806.41
2022-11-20T06:40:14.668Z,98803.78
2022-11-20T06:41:19.623Z,98811.41
2022-11-20T06:42:22.316Z,98817.63
2022-11-20T06:43:27.154Z,98809.53
2022-11-20T06:44:29.403Z,98811.56
2022-11-20T06:45:31.736Z,98809.81
2022-11-20T06:46:34.160Z,98819.94
2022-11-20T06:47:36.431Z,98817.09
2022-11-20T06:48:38.915Z,98816.97
2022-11-20T06:49:41.103Z,98820.44
2022-11-20T06:50:43.363Z,98816.91
2022-11-20T06:51:45.933Z,98821.16
2022-11-20T06:52:49.109Z,98821.38
2022-11-20T06:53:51.314Z,98816.06
2022-11-20T06:54:53.506Z,98825.63
2022-11-20T06:55:58.487Z,98817.03
2022-11-20T06:57:00.705Z,98813.81
2022-11-20T06:58:03.618Z,98820.16
2022-11-20T06:59:07.264Z,98814.75
2022-11-20T07:00:12.500Z,98818.56
2022-11-20T07:01:16.250Z,98816.34
2022-11-20T07:02:18.469Z,98814.06
2022-11-20T07:03:21.030Z,98829.81
2022-11-20T07:04:24.711Z,98820.34
2022-11-20T07:05:31.172Z,98825.16
2022-11-20T07:06:33.395Z,98829.59
2022-11-20T07:07:35.634Z,98834.56
2022-11-20T07:08:38.141Z,98834.47
2022-11-20T07:09:40.518Z,98830.94
2022-11-20T07:10:42.796Z,98832.69
2022-11-20T07:11:45.163Z,98831.47
2022-11-20T07:12:51.631Z,98836.13
2022-11-20T07:13:53.900Z,98822.56
2022-11-20T07:14:56.584Z,98837.09
2022-11-20T07:16:04.011Z,98835.31
2022-11-20T07:17:06.217Z,98830.28
2022-11-20T07:18:08.368Z,98834.69
2022-11-20T07:19:10.789Z,98839.19
2022-11-20T07:20:14.301Z,98832.81
2022-11-20T07:21:16.658Z,98839.06
2022-11-20T07:22:19.193Z,98844.22
2022-11-20T07:23:21.617Z,98843.06
2022-11-20T07:24:23.897Z,98834.28
2022-11-20T07:25:27.602Z,98848.56
2022-11-20T07:26:29.899Z,98837.78
2022-11-20T07:27:32.105Z,98835.16
2022-11-20T07:28:35.255Z,98843.56
2022-11-20T07:29:37.483Z,98840.66
2022-11-20T07:30:40.065Z,98840.84
2022-11-20T07:31:42.916Z,98847.16
2022-11-20T07:32:51.428Z,98843.41
2022-11-20T07:33:53.589Z,98842.78
2022-11-20T07:34:55.985Z,98838.66
2022-11-20T07:36:00.334Z,98845.66
2022-11-20T07:37:07.481Z,98835.88
2022-11-20T07:38:12.434Z,98837.47
2022-11-20T07:39:14.609Z,98850.47
2022-11-20T07:40:18.051Z,98842.63
2022-11-20T07:41:20.243Z,98844.63
2022-11-20T07:42:22.626Z,98837.59
2022-11-20T07:43:27.020Z,98845.44
2022-11-20T07:44:29.283Z,98850.22
2022-11-20T07:45:31.512Z,98849.03
2022-11-20T07:46:33.712Z,98845.16
2022-11-20T07:47:37.377Z,98848.16
2022-11-20T07:48:39.609Z,98843.16
2022-11-20T07:49:41.804Z,98851.63
2022-11-20T07:50:44.297Z,98849.00
2022-11-20T07:51:50.157Z,98854.75
2022-11-20T07:53:01.479Z,98850.88
2022-11-20T07:54:03.932Z,98842.75
2022-11-20T07:55:06.926Z,98847.91
2022-11-20T07:56:09.167Z,98859.53
2022-11-20T07:57:11.567Z,98851.00
2022-11-20T07:58:14.859Z,98855.16
2022-11-20T07:59:17.098Z,98853.78
2022-11-20T08:00:19.341Z,98863.88
2022-11-20T08:01:21.631Z,98861.91
2022-11-20T08:02:24.707Z,98859.34
2022-11-20T08:03:27.059Z,98863.78
2022-11-20T08:04:29.702Z,98865.75
2022-11-20T08:05:32.217Z,98872.28
2022-11-20T08:06:34.461Z,98872.81
2022-11-20T08:07:41.881Z,98862.72
2022-11-20T08:08:45.083Z,98872.34
2022-11-20T08:09:49.148Z,98871.13
2022-11-20T08:10:52.032Z,98874.28
2022-11-20T08:12:12.682Z,98873.25
2022-11-20T08:13:33.960Z,98879.41
2022-11-20T08:14:36.244Z,98866.16
2022-11-20T08:15:40.473Z,98871.16
2022-11-20T08:16:47.946Z,98882.06
2022-11-20T08:18:15.315Z,98876.66
2022-11-20T08:19:16.325Z,98883.59
2022-11-20T08:20:18.944Z,98874.44
2022-11-20T08:21:21.271Z,98883.47
2022-11-20T08:22:23.846Z,98884.19
2022-11-20T08:23:28.715Z,98876.81
2022-11-20T08:24:31.013Z,98885.22
2022-11-20T08:25:34.863Z,98878.59
2022-11-20T08:26:38.220Z,98876.53
2022-11-20T08:27:40.397Z,98876.28
2022-11-20T08:28:42.648Z,98876.16
2022-11-20T08:29:45.094Z,98888.66
2022-11-20T08:30:47.572Z,98877.06
2022-11-20T08:31:50.360Z,98876.03
2022-11-20T08:32:52.787Z,98878.44
2022-11-20T08:33:55.622Z,98880.47
2022-11-20T08:34:57.835Z,98887.56
2022-11-20T08:36:02.034Z,98879.22
2022-11-20T08:37:04.493Z,98883.06
2022-11-20T08:38:07.046Z,98889.00
2022-11-20T08:39:12.553Z,98897.28
2022-11-20T08:40:19.477Z,98884.19
2022-11-20T08:41:24.891Z,98888.09
2022-11-20T08:42:29.953Z,98887.72
2022-11-20T08:43:32.270Z,98884.44
2022-11-20T08:44:34.744Z,98889.06
2022-11-20T08:45:37.158Z,98895.78
2022-11-20T08:46:42.144Z,98895.13
2022-11-20T08:47:45.093Z,98895.06
2022-11-20T08:48:47.582Z,98889.59
2022-11-20T08:49:49.766Z,98897.47
2022-11-20T08:50:51.958Z,98893.41
2022-11-20T08:51:56.175Z,98899.78
2022-11-20T08:53:04.191Z,98895.53
2022-11-20T08:54:07.030Z,98902.69
2022-11-20T08:55:09.752Z,98900.75
2022-11-20T08:56:12.453Z,98905.09
2022-11-20T08:57:14.683Z,98897.47
2022-11-20T08:58:17.361Z,98899.72
2022-11-20T08:59:37.292Z,98898.75
2022-11-20T09:00:42.593Z,98892.19
2022-11-20T09:01:45.275Z,98891.78
2022-11-20T09:02:51.147Z,98904.88
2022-11-20T09:03:53.671Z,98898.38
2022-11-20T09:04:56.026Z,98907.88
2022-11-20T09:06:03.320Z,98899.34
2022-11-20T09:07:06.234Z,98901.66
2022-11-20T09:08:08.479Z,98896.59
2022-11-20T09:09:10.770Z,98900.22
2022-11-20T09:10:28.403Z,98900.22
2022-11-20T09:11:30.796Z,98893.88
2022-11-20T09:12:33.050Z,98899.72
2022-11-20T09:13:36.940Z,98899.16
2022-11-20T09:14:39.145Z,98889.56
2022-11-20T09:15:41.553Z,98897.31
2022-11-20T09:16:45.990Z,98900.53
2022-11-20T09:17:59.390Z,98894.75
2022-11-20T09:19:33.546Z,98896.53
2022-11-20T09:20:24.501Z,98899.16
2022-11-20T09:21:26.812Z,98903.41
2022-11-20T09:22:29.154Z,98899.50
2022-11-20T09:23:36.170Z,98914.06
2022-11-20T09:24:39.000Z,98904.75
2022-11-20T09:25:41.395Z,98914.38
2022-11-20T09:26:44.270Z,98920.94
2022-11-20T09:27:47.424Z,98933.69
2022-11-20T09:28:52.834Z,98928.66
2022-11-20T09:29:57.700Z,98929.97
2022-11-20T09:31:00.670Z,98925.50
2022-11-20T09:32:03.049Z,98922.53
2022-11-20T09:33:06.444Z,98909.81
2022-11-20T09:34:09.213Z,98919.16
2022-11-20T09:35:11.985Z,98911.25
2022-11-20T09:36:19.372Z,98904.63
2022-11-20T09:37:21.688Z,98901.81
2022-11-20T09:38:25.504Z,98893.38
2022-11-20T09:39:27.904Z,98896.22
2022-11-20T09:40:30.419Z,98896.38
2022-11-20T09:42:04.848Z,98904.22
2022-11-20T09:43:09.793Z,98912.84
2022-11-20T09:44:44.692Z,98911.19
2022-11-20T09:46:07.645Z,98918.06
2022-11-20T09:47:26.313Z,98920.69
2022-11-20T09:49:13.357Z,98915.47
2022-11-20T09:50:25.157Z,98912.13
2022-11-20T09:51:45.493Z,98916.69
2022-11-20T09:52:59.821Z,98916.84
2022-11-20T09:54:20.106Z,98910.59
2022-11-20T09:55:22.737Z,98920.06
2022-11-20T09:56:26.765Z,98914.38
2022-11-20T09:57:37.563Z,98913.31
2022-11-20T09:58:43.864Z,98913.03
2022-11-20T09:59:57.119Z,98919.56
2022-11-20T10:01:33.485Z,98912.47
2022-11-20T10:02:47.625Z,98920.97
2022-11-20T10:04:07.795Z,98922.56
2022-11-20T10:05:23.767Z,98928.28
2022-11-20T10:06:43.422Z,98917.25
2022-11-20T10:07:56.156Z,98921.09
2022-11-20T10:09:15.132Z,98917.50
2022-11-20T10:10:25.717Z,98919.34
2022-11-20T10:11:53.216Z,98918.91
2022-11-20T10:13:22.357Z,98915.94
2022-11-20T10:14:34.851Z,98921.31
2022-11-20T10:15:43.742Z,98910.47
2022-11-20T10:17:24.112Z,98917.06
2022-11-20T10:18:52.353Z,98916.97
2022-11-20T10:20:20.590Z,98906.38
2022-11-20T10:21:54.999Z,98910.47
2022-11-20T10:23:25.850Z,98913.25
2022-11-20T10:25:02.304Z,98924.56
2022-11-20T10:26:04.439Z,98930.06
2022-11-20T10:27:25.208Z,98928.81
2022-11-20T10:28:55.455Z,98930.41
2022-11-20T10:30:03.654Z,98928.13
2022-11-20T10:31:13.238Z,98913.72
2022-11-20T10:32:19.806Z,98923.09
2022-11-20T10:33:38.777Z,98922.31
2022-11-20T10:35:02.560Z,98934.00
2022-11-20T10:36:28.268Z,98933.25
2022-11-20T10:37:34.895Z,98921.31
2022-11-20T10:39:06.947Z,98927.84
2022-11-20T10:40:09.199Z,98915.97
2022-11-20T10:41:28.169Z,98924.38
2022-11-20T10:42:41.573Z,98919.81
2022-11-20T10:43:46.024Z,98914.00
2022-11-20T10:45:06.086Z,98917.66
2022-11-20T10:46:20.872Z,98912.44
2022-11-20T10:47:31.398Z,98916.59
2022-11-20T10:48:34.407Z,98916.66
2022-11-20T10:49:37.778Z,98908.53
2022-11-20T10:51:06.038Z,98920.13
2022-11-20T10:52:34.341Z,98911.69
2022-11-20T10:54:10.221Z,98911.34
2022-11-20T10:55:51.878Z,98901.81
2022-11-20T10:57:05.360Z,98908.25
2022-11-20T10:58:32.079Z,98903.84
2022-11-20T11:00:13.466Z,98893.41
2022-11-20T11:01:22.887Z,98904.78
2022-11-20T11:02:34.780Z,98899.06
2022-11-20T11:03:37.570Z,98886.72
2022-11-20T11:04:46.334Z,98887.38
2022-11-20T11:06:00.630Z,98878.81
2022-11-20T11:07:17.982Z,98885.84
2022-11-20T11:08:21.711Z,98888.06
2022-11-20T11:09:35.076Z,98887.91
2022-11-20T11:10:54.420Z,98881.50
2022-11-20T11:11:56.675Z,98873.50
2022-11-20T11:12:58.888Z,98883.56
2022-11-20T11:14:16.750Z,98891.06
2022-11-20T11:15:39.967Z,98888.09
2022-11-20T11:16:58.252Z,98882.38
2022-11-20T11:18:00.748Z,98872.91
2022-11-20T11:19:14.732Z,98880.25
2022-11-20T11:20:26.226Z,98887.53
2022-11-20T11:21:28.784Z,98882.75
2022-11-20T11:22:33.230Z,98878.91
2022-11-20T11:23:45.426Z,98878.72
2022-11-20T11:24:54.838Z,98873.09
2022-11-20T11:25:59.820Z,98871.66
2022-11-20T11:27:05.534Z,98870.88
2022-11-20T11:28:19.971Z,98865.72
2022-11-20T11:29:22.887Z,98864.84
2022-11-20T11:30:27.400Z,98863.22
2022-11-20T11:31:32.110Z,98860.19
2022-11-20T11:32:34.512Z,98861.84
2022-11-20T11:33:37.544Z,98853.84
2022-11-20T11:34:40.723Z,98852.16
2022-11-20T11:36:03.267Z,98856.94
2022-11-20T11:37:12.035Z,98858.19
2022-11-20T11:38:18.756Z,98859.41
2022-11-20T11:39:22.635Z,98844.34
2022-11-20T11:40:27.917Z,98844.44
2022-11-20T11:41:36.592Z,98849.88
2022-11-20T11:42:55.253Z,98847.06
2022-11-20T11:44:20.491Z,98836.75
2022-11-20T11:45:23.561Z,98845.66
2022-11-20T11:46:28.349Z,98835.75
2022-11-20T11:47:38.562Z,98840.13
2022-11-20T11:48:40.954Z,98836.91
2022-11-20T11:49:44.435Z,98838.63
2022-11-20T11:50:52.826Z,98834.22
2022-11-20T11:51:58.260Z,98825.47
2022-11-20T11:53:11.400Z,98831.03
2022-11-20T11:54:37.713Z,98824.94
2022-11-20T11:55:50.786Z,98823.25
2022-11-20T11:56:54.720Z,98829.25
2022-11-20T11:58:10.633Z,98828.78
2022-11-20T11:59:24.856Z,98835.16
2022-11-20T12:00:34.044Z,98828.28
2022-11-20T12:01:50.293Z,98836.38
2022-11-20T12:03:16.861Z,98832.44
2022-11-20T12:04:48.045Z,98836.75
2022-11-20T12:06:09.926Z,98836.31
2022-11-20T12:07:45.944Z,98831.91
2022-11-20T12:09:16.710Z,98826.78
2022-11-20T12:10:36.173Z,98821.97
2022-11-20T12:11:47.728Z,98823.69
2022-11-20T12:12:59.594Z,98822.47
2022-11-20T12:14:25.219Z,98821.63
2022-11-20T12:15:34.596Z,98821.97
2022-11-20T12:16:40.070Z,98823.84
2022-11-20T12:17:45.325Z,98822.41
2022-11-20T12:18:53.029Z,98821.19
2022-11-20T12:19:55.930Z,98825.56
2022-11-20T12:21:36.554Z,98825.66
2022-11-20T12:23:03.492Z,98823.41
2022-11-20T12:24:27.582Z,98830.56
2022-11-20T12:25:37.388Z,98820.63
2022-11-20T12:27:22.371Z,98817.09
2022-11-20T12:28:38.060Z,98818.44
2022-11-20T12:29:40.254Z,98824.34
2022-11-20T12:30:49.559Z,98817.47
2022-11-20T12:32:15.264Z,98809.72
2022-11-20T12:33:26.993Z,98817.53
2022-11-20T12:34:52.062Z,98815.03
2022-11-20T12:35:57.922Z,98805.34
2022-11-20T12:37:14.055Z,98809.25
2022-11-20T12:38:56.363Z,98810.75
2022-11-20T12:40:26.764Z,98812.38
2022-11-20T12:42:17.896Z,98817.06
2022-11-20T12:43:48.478Z,98815.59
2022-11-20T12:45:12.372Z,98818.31
2022-11-20T12:46:54.524Z,98826.38
2022-11-20T12:48:16.978Z,98812.66
2022-11-20T12:49:44.714Z,98822.16
2022-11-20T12:51:14.968Z,98820.31
2022-11-20T12:52:39.573Z,98835.22
2022-11-20T12:54:17.527Z,98821.00
2022-11-20T12:56:12.256Z,98826.06
2022-11-20T12:57:27.108Z,98824.19
2022-11-20T12:58:45.274Z,98821.22
2022-11-20T12:59:50.576Z,98819.63
2022-11-20T13:01:10.538Z,98825.06
2022-11-20T13:02:37.822Z,98825.84
2022-11-20T13:03:54.786Z,98824.66
2022-11-20T13:05:08.943Z,98825.44
2022-11-20T13:06:19.452Z,98816.47
2022-11-20T13:07:25.524Z,98814.78
2022-11-20T13:08:33.604Z,98820.25
2022-11-20T13:09:50.167Z,98817.88
2022-11-20T13:11:10.783Z,98819.41
2022-11-20T13:12:26.963Z,98820.53
2022-11-20T13:13:55.702Z,98810.69
2022-11-20T13:15:37.622Z,98819.50